Time;durP1;ratioP1;P1;durP2;ratioP2;P2;SDS_P1;SDS_P2;PMS_P1;PMS_P2;Temp;Humidity;BMP_temperature;BMP_pressure;BME280_temperature;BME280_humidity;BME280_pressure;Samples;Min_cycle;Max_cycle;Signal;HPM_P1;HPM_P2
2023/05/15 00:00:09;;;;;;;;;31.50;29.00;;;;;17.19;56.42;101153.41;2072632;28;45801;-63
2023/05/15 00:01:10;;;;;;;;;30.00;28.20;;;;;17.18;56.65;101154.34;2072390;28;46819;-63
2023/05/15 00:02:11;;;;;;;;;30.75;29.00;;;;;17.17;56.63;101160.66;2072185;28;46101;-64
2023/05/15 00:03:12;;;;;;;;;34.20;31.00;;;;;17.17;56.75;101160.66;2072817;28;46680;-63
2023/05/15 00:04:12;;;;;;;;;31.50;29.25;;;;;17.17;56.65;101152.63;2072744;28;46023;-64
2023/05/15 00:05:12;;;;;;;;;30.75;28.00;;;;;17.16;56.54;101155.38;2072097;28;46928;-62
2023/05/15 00:06:13;;;;;;;;;35.75;31.00;;;;;17.15;56.87;101151.81;2072977;28;46583;-63
2023/05/15 00:07:13;;;;;;;;;31.75;29.00;;;;;17.14;56.83;101155.41;2072960;28;46830;-63
2023/05/15 00:08:14;;;;;;;;;34.00;29.00;;;;;17.12;57.39;101151.91;2073157;28;45735;-63
2023/05/15 00:09:14;;;;;;;;;33.25;31.00;;;;;17.10;57.23;101151.13;2070596;28;45872;-63
2023/05/15 00:10:15;;;;;;;;;33.75;31.25;;;;;17.09;57.22;101148.50;2070904;28;46280;-63
2023/05/15 00:11:15;;;;;;;;;35.25;31.00;;;;;17.07;57.08;101153.94;2070778;28;45234;-63
2023/05/15 00:12:15;;;;;;;;;28.50;26.00;;;;;17.06;57.37;101153.06;2070926;28;46626;-64
2023/05/15 00:13:17;;;;;;;;;30.25;28.25;;;;;17.04;57.15;101149.56;2071514;28;46236;-63
2023/05/15 00:14:18;;;;;;;;;27.20;26.60;;;;;17.02;57.46;101142.50;2071578;28;45888;-63
2023/05/15 00:15:18;;;;;;;;;32.50;30.25;;;;;17.01;57.28;101138.94;2071915;28;45531;-63
2023/05/15 00:16:18;;;;;;;;;34.50;31.25;;;;;16.99;57.45;101138.16;2071468;28;46090;-63
2023/05/15 00:19:37;;;;;;;;;33.60;30.00;;;;;16.96;57.65;101148.13;2072958;28;46045;-62
2023/05/15 00:20:38;;;;;;;;;33.20;29.60;;;;;16.94;57.47;101147.34;2072677;28;45552;-64
2023/05/15 00:21:38;;;;;;;;;32.75;30.00;;;;;16.93;57.72;101146.47;2072035;28;46474;-62
2023/05/15 00:22:38;;;;;;;;;33.00;30.50;;;;;16.93;57.85;101141.09;2071665;28;45504;-64
2023/05/15 00:23:39;;;;;;;;;34.25;31.25;;;;;16.91;57.98;101139.44;2072319;28;46661;-62
2023/05/15 00:24:39;;;;;;;;;30.75;29.25;;;;;16.89;57.83;101139.47;2072588;28;46852;-63
2023/05/15 00:25:39;;;;;;;;;38.00;31.50;;;;;16.88;58.20;101142.22;2072675;28;46000;-62
2023/05/15 00:26:40;;;;;;;;;37.00;32.00;;;;;16.87;58.17;101132.41;2073543;28;45659;-62
2023/05/15 00:27:40;;;;;;;;;37.00;32.00;;;;;16.87;57.74;101135.97;2071836;28;45403;-62
2023/05/15 00:28:40;;;;;;;;;36.00;32.25;;;;;16.86;57.93;101134.22;2072161;28;46082;-62
2023/05/15 00:29:41;;;;;;;;;32.50;30.50;;;;;16.86;57.87;101131.56;2072670;28;46397;-63
2023/05/15 00:30:42;;;;;;;;;35.25;32.25;;;;;16.85;58.04;101136.97;2072409;28;46000;-62
2023/05/15 00:31:42;;;;;;;;;32.75;29.75;;;;;16.83;58.31;101133.50;2072710;28;46652;-62
2023/05/15 00:32:42;;;;;;;;;33.50;30.25;;;;;16.82;58.11;101132.63;2073005;28;46341;-63
2023/05/15 00:33:43;;;;;;;;;29.50;29.50;;;;;16.83;57.95;101136.19;2073253;28;46917;-62
2023/05/15 00:34:43;;;;;;;;;38.00;32.50;;;;;16.82;58.14;101132.63;2072877;28;45862;-63
2023/05/15 00:35:44;;;;;;;;;33.75;32.00;;;;;16.83;58.22;101128.13;2072524;28;47104;-61
2023/05/15 00:36:45;;;;;;;;;35.00;32.20;;;;;16.83;58.35;101133.50;2072421;28;46831;-62
2023/05/15 00:37:45;;;;;;;;;38.50;32.50;;;;;16.82;58.42;101131.75;2072197;28;46551;-62
2023/05/15 00:38:46;;;;;;;;;33.00;31.25;;;;;16.81;58.42;101135.38;2072184;28;46446;-63
2023/05/15 00:39:47;;;;;;;;;35.25;29.75;;;;;16.80;58.17;101131.81;2072731;28;45699;-63
2023/05/15 00:40:47;;;;;;;;;33.00;30.25;;;;;16.80;58.28;101126.47;2072153;28;45035;-63
2023/05/15 00:41:49;;;;;;;;;33.25;30.00;;;;;16.80;58.57;101126.47;2062716;28;46637;-61
2023/05/15 00:42:51;;;;;;;;;33.20;29.00;;;;;16.79;58.63;101124.72;2063409;28;45627;-63
2023/05/15 00:43:52;;;;;;;;;35.40;31.40;;;;;16.79;58.69;101123.84;2072149;28;45789;-62
2023/05/15 00:44:55;;;;;;;;;35.75;31.75;;;;;16.79;58.57;101123.84;2072333;28;46338;-62
2023/05/15 00:45:57;;;;;;;;;37.20;32.00;;;;;16.77;58.36;101121.22;2072347;28;45440;-62
2023/05/15 00:47:00;;;;;;;;;35.00;32.00;;;;;16.76;58.91;101116.78;2072399;28;46085;-63
2023/05/15 00:48:00;;;;;;;;;37.20;32.60;;;;;16.76;58.57;101114.09;2079348;28;47275;-63
2023/05/15 00:49:04;;;;;;;;;36.75;33.50;;;;;16.76;58.81;101119.44;2079947;28;46063;-62
2023/05/15 00:50:06;;;;;;;;;33.60;31.20;;;;;16.74;58.80;101113.28;2072007;28;46109;-61
2023/05/15 00:51:08;;;;;;;;;35.00;31.60;;;;;16.73;58.21;101116.91;2072342;28;47082;-61
2023/05/15 00:52:09;;;;;;;;;31.20;29.20;;;;;16.72;58.52;101120.53;2072447;28;45527;-63
2023/05/15 00:53:10;;;;;;;;;32.00;30.20;;;;;16.71;59.06;101113.41;2072096;28;45826;-63
2023/05/15 00:54:10;;;;;;;;;37.25;31.00;;;;;16.71;59.05;101118.78;2072713;28;45597;-64
2023/05/15 00:55:10;;;;;;;;;37.00;31.00;;;;;16.69;58.75;101121.53;2072146;28;45694;-62
2023/05/15 00:56:11;;;;;;;;;38.75;32.25;;;;;16.67;58.68;101123.41;2072583;28;45481;-63
2023/05/15 00:57:12;;;;;;;;;35.00;31.25;;;;;16.64;58.80;101123.50;2072005;28;45556;-63
2023/05/15 00:58:14;;;;;;;;;35.00;31.75;;;;;16.61;58.93;101115.56;2072079;28;46658;-62
2023/05/15 00:59:16;;;;;;;;;32.60;30.00;;;;;16.61;58.70;101126.28;2071764;28;46712;-62
2023/05/15 01:00:17;;;;;;;;;38.40;32.60;;;;;16.60;59.08;101124.53;2072320;28;45679;-61
2023/05/15 01:01:17;;;;;;;;;38.20;33.60;;;;;16.59;59.01;101120.13;2072086;28;45993;-64
2023/05/15 01:02:18;;;;;;;;;36.25;32.00;;;;;16.58;59.06;101112.13;2072251;28;46023;-63
2023/05/15 01:03:19;;;;;;;;;37.25;32.50;;;;;16.58;59.34;101117.50;2071779;28;46784;-62
2023/05/15 01:04:19;;;;;;;;;36.75;32.50;;;;;16.57;59.20;101113.94;2072000;28;46854;-62
2023/05/15 01:05:20;;;;;;;;;37.00;31.75;;;;;16.57;59.29;101111.28;2072007;28;45998;-62
2023/05/15 01:06:20;;;;;;;;;38.50;33.50;;;;;16.56;59.33;101112.22;2072292;28;45402;-63
2023/05/15 01:07:21;;;;;;;;;37.25;32.25;;;;;16.56;59.15;101108.66;2072568;28;45556;-62
2023/05/15 01:08:38;;;;;;;;;37.25;33.00;;;;;16.55;59.42;101109.59;2072310;28;45573;-63
2023/05/15 01:09:42;;;;;;;;;35.20;32.00;;;;;16.54;59.38;101103.38;2078416;28;46328;-61
2023/05/15 01:10:43;;;;;;;;;39.20;32.40;;;;;16.54;59.49;101107.84;2077826;28;45391;-62
2023/05/15 01:11:46;;;;;;;;;36.40;31.40;;;;;16.54;59.50;101106.03;2063867;28;46873;-62
2023/05/15 01:12:51;;;;;;;;;37.20;32.20;;;;;16.55;59.20;101110.47;2069567;28;46130;-64
2023/05/15 01:13:52;;;;;;;;;39.80;34.40;;;;;16.57;59.60;101110.41;2070758;28;48337;-63
2023/05/15 01:14:52;;;;;;;;;34.00;31.25;;;;;16.58;59.75;101117.50;2064221;28;45498;-63
2023/05/15 01:15:53;;;;;;;;;38.75;32.75;;;;;16.58;59.36;101112.13;2069500;28;46119;-62
2023/05/15 01:16:54;;;;;;;;;32.60;29.80;;;;;16.58;59.68;101117.50;2072722;28;46956;-62
2023/05/15 01:17:54;;;;;;;;;42.25;35.75;;;;;16.57;59.52;101111.28;2062757;28;45700;-62
2023/05/15 01:18:55;;;;;;;;;41.00;32.25;;;;;16.56;59.27;101116.69;2063038;28;45441;-63
2023/05/15 01:19:57;;;;;;;;;37.50;32.00;;;;;16.59;59.63;101111.19;2063237;28;45586;-63
2023/05/15 01:21:00;;;;;;;;;40.00;33.00;;;;;16.58;59.54;101113.00;2062641;28;45716;-63
2023/05/15 01:22:21;;;;;;;;;36.60;32.40;;;;;16.58;59.42;101107.66;2063194;28;46230;-62
2023/05/15 01:24:03;;;;;;;;;32.60;29.20;;;;;16.58;59.60;101118.38;2062764;28;47749;-62
2023/05/15 01:25:33;;;;;;;;;37.60;31.80;;;;;16.58;59.68;101112.13;2030562;29;45620;-63
2023/05/15 01:27:01;;;;;;;;;39.20;33.60;;;;;16.57;59.31;101110.41;2031067;29;45314;-63
2023/05/15 01:28:09;;;;;;;;;34.80;31.20;;;;;16.56;59.60;101111.34;2030444;29;45757;-63
2023/05/15 01:29:15;;;;;;;;;35.40;32.20;;;;;16.55;59.66;101109.59;2031152;29;45817;-62
2023/05/15 01:30:25;;;;;;;;;38.80;33.60;;;;;16.54;60.01;101116.75;2031210;29;45756;-61
2023/05/15 01:31:31;;;;;;;;;39.60;35.60;;;;;16.53;59.48;101112.34;2031609;29;46765;-62
2023/05/15 01:32:40;;;;;;;;;44.80;35.60;;;;;16.54;59.37;101110.53;2031295;29;46396;-63
2023/05/15 01:33:46;;;;;;;;;35.80;32.40;;;;;16.52;60.00;101109.72;2031290;29;45832;-62
2023/05/15 01:34:49;;;;;;;;;38.40;34.60;;;;;16.51;59.69;101108.81;2030563;29;46536;-62
2023/05/15 01:36:06;;;;;;;;;41.00;35.60;;;;;16.49;59.83;101111.56;2031036;29;46160;-63
2023/05/15 01:37:10;;;;;;;;;43.60;35.40;;;;;16.48;59.92;101114.31;2030529;29;45793;-60
2023/05/15 01:38:16;;;;;;;;;41.60;35.60;;;;;16.45;59.99;101107.28;2030886;29;45713;-60
2023/05/15 01:39:22;;;;;;;;;46.00;36.40;;;;;16.44;59.90;101110.00;2030728;29;46760;-61
2023/05/15 01:40:25;;;;;;;;;41.20;34.40;;;;;16.43;59.96;101109.16;2030458;29;46231;-61
2023/05/15 01:41:52;;;;;;;;;44.40;35.40;;;;;16.43;60.04;101117.19;2022910;29;45820;-62
2023/05/15 01:43:00;;;;;;;;;36.80;33.60;;;;;16.42;60.00;101112.75;2025971;29;46774;-64
2023/05/15 01:44:28;;;;;;;;;44.60;37.80;;;;;16.41;60.34;101115.50;2030784;29;46746;-63
2023/05/15 01:45:31;;;;;;;;;43.60;37.20;;;;;16.39;60.31;101115.56;2011133;29;46578;-63
2023/05/15 01:46:36;;;;;;;;;41.00;35.60;;;;;16.40;60.32;101121.78;2011160;29;45813;-63
2023/05/15 01:47:42;;;;;;;;;44.60;35.00;;;;;16.39;60.13;101112.00;2015093;29;45561;-63
2023/05/15 01:48:44;;;;;;;;;41.80;35.00;;;;;16.37;59.95;101116.53;2015480;29;46723;-63
2023/05/15 01:49:48;;;;;;;;;41.80;35.20;;;;;16.36;60.57;101115.66;2014796;29;45821;-63
2023/05/15 01:50:51;;;;;;;;;39.80;34.60;;;;;16.34;60.15;101113.97;2015527;29;46025;-61
2023/05/15 01:52:00;;;;;;;;;40.20;34.00;;;;;16.31;60.68;101116.78;2015100;29;46200;-63
2023/05/15 01:53:01;;;;;;;;;41.40;35.40;;;;;16.29;60.55;101119.53;2015324;29;45468;-61
2023/05/15 01:54:02;;;;;;;;;38.60;34.20;;;;;16.26;60.49;101116.97;2015226;29;45955;-62
2023/05/15 01:55:06;;;;;;;;;42.50;34.75;;;;;16.27;60.86;101112.50;2014770;29;46945;-63
2023/05/15 01:56:08;;;;;;;;;42.40;36.40;;;;;16.27;60.96;101115.16;2022566;29;46309;-62
2023/05/15 01:57:10;;;;;;;;;46.20;38.80;;;;;16.26;60.44;101114.31;2031015;29;46006;-60
2023/05/15 01:58:12;;;;;;;;;45.60;37.20;;;;;16.26;60.96;101110.72;2030518;29;46641;-61
2023/05/15 01:59:14;;;;;;;;;48.00;40.40;;;;;16.24;60.68;101112.59;2031235;29;46321;-62
2023/05/15 02:00:16;;;;;;;;;45.60;37.80;;;;;16.24;60.51;101109.91;2030556;29;46123;-62
2023/05/15 02:01:17;;;;;;;;;47.00;38.40;;;;;16.24;60.93;101109.91;2023511;29;46186;-61
2023/05/15 02:02:18;;;;;;;;;39.00;34.20;;;;;16.23;60.79;101108.16;2025860;28;46506;-62
2023/05/15 02:03:19;;;;;;;;;40.50;34.00;;;;;16.23;60.79;101110.84;2046274;28;46085;-60
2023/05/15 02:04:21;;;;;;;;;41.50;34.75;;;;;16.23;60.53;101110.84;2046308;28;45586;-62
2023/05/15 02:05:22;;;;;;;;;42.40;36.00;;;;;16.22;60.65;101107.28;2048803;28;46521;-62
2023/05/15 02:06:24;;;;;;;;;38.00;34.00;;;;;16.20;61.18;101106.50;2054381;28;46388;-63
2023/05/15 02:07:25;;;;;;;;;41.60;35.00;;;;;16.19;60.89;101107.41;2054498;28;45739;-62
2023/05/15 02:08:27;;;;;;;;;44.60;35.40;;;;;16.19;60.88;101107.41;2054641;28;46545;-62
2023/05/15 02:09:28;;;;;;;;;41.60;36.40;;;;;16.15;61.00;101106.69;2054656;28;45750;-63
2023/05/15 02:10:30;;;;;;;;;45.20;36.00;;;;;16.14;60.74;101107.63;2054244;28;45893;-62
2023/05/15 02:11:31;;;;;;;;;46.80;38.40;;;;;16.12;60.84;101109.44;2047003;28;45633;-61
2023/05/15 02:12:33;;;;;;;;;38.00;33.50;;;;;16.10;61.28;101114.00;2054454;28;46108;-63
2023/05/15 02:13:35;;;;;;;;;45.20;37.60;;;;;16.10;61.03;101113.13;2054652;28;46464;-62
2023/05/15 02:14:36;;;;;;;;;43.60;36.80;;;;;16.09;61.03;101104.22;2054725;28;46260;-62
2023/05/15 02:15:37;;;;;;;;;45.40;37.00;;;;;16.09;61.20;101106.91;2053223;28;46557;-60
2023/05/15 02:16:38;;;;;;;;;42.40;35.00;;;;;16.08;60.98;101110.50;2054926;28;45999;-62
2023/05/15 02:17:38;;;;;;;;;43.75;35.50;;;;;16.08;60.96;101106.97;2046489;28;46455;-63
2023/05/15 02:18:38;;;;;;;;;40.00;32.50;;;;;16.08;61.09;101102.47;2034550;28;45753;-61
2023/05/15 02:19:39;;;;;;;;;47.50;37.75;;;;;16.08;61.21;101110.50;2038448;28;46086;-62
2023/05/15 02:20:39;;;;;;;;;46.50;39.25;;;;;16.08;61.08;101109.63;2047163;28;45487;-62
2023/05/15 02:21:40;;;;;;;;;42.75;36.00;;;;;16.07;60.59;101111.44;2049632;28;45602;-62
2023/05/15 02:22:40;;;;;;;;;48.00;40.00;;;;;16.06;61.02;101108.81;2053911;28;46420;-63
2023/05/15 02:23:40;;;;;;;;;49.25;39.50;;;;;16.05;60.54;101109.75;2073508;28;44965;-63
2023/05/15 02:24:41;;;;;;;;;43.00;35.25;;;;;16.02;61.14;101105.41;2073905;28;45854;-62
2023/05/15 02:26:15;;;;;;;;;49.00;40.50;;;;;15.99;61.16;101107.28;2073337;28;45659;-60
2023/05/15 02:27:25;;;;;;;;;45.20;37.60;;;;;15.97;60.84;101110.03;2073390;28;46354;-61
2023/05/15 02:28:49;;;;;;;;;43.80;35.00;;;;;15.95;61.36;101109.22;2073375;28;45574;-62
2023/05/15 02:30:11;;;;;;;;;45.00;38.20;;;;;15.95;61.28;101111.03;2073382;28;46122;-61
2023/05/15 02:31:21;;;;;;;;;50.60;41.80;;;;;15.95;60.77;101111.03;2073382;28;46538;-62
2023/05/15 02:32:53;;;;;;;;;52.20;42.20;;;;;15.94;61.14;101109.28;2073513;28;45573;-62
2023/05/15 02:34:25;;;;;;;;;45.80;39.20;;;;;15.92;60.91;101103.13;2065538;28;46412;-62
2023/05/15 02:35:47;;;;;;;;;49.00;39.20;;;;;15.88;61.17;101113.09;2066886;28;46128;-63
2023/05/15 02:36:52;;;;;;;;;41.40;35.80;;;;;15.84;61.09;101103.41;2073639;28;45703;-63
2023/05/15 02:37:55;;;;;;;;;47.40;39.20;;;;;15.82;61.06;101106.13;2073649;28;45749;-60
2023/05/15 02:38:57;;;;;;;;;44.40;37.20;;;;;15.78;61.53;101104.50;2073988;28;45691;-62
2023/05/15 02:40:00;;;;;;;;;50.80;42.00;;;;;15.77;61.32;101115.28;2073232;28;45718;-63
2023/05/15 02:41:02;;;;;;;;;46.40;39.20;;;;;15.75;61.53;101109.97;2074163;28;45676;-62
2023/05/15 02:42:05;;;;;;;;;47.60;39.60;;;;;15.74;61.37;101105.53;2073283;28;46847;-62
2023/05/15 02:43:07;;;;;;;;;46.60;38.80;;;;;15.72;61.11;101104.72;2074068;28;46460;-63
2023/05/15 02:44:09;;;;;;;;;50.20;41.20;;;;;15.70;61.06;101103.91;2074131;28;45958;-62
2023/05/15 02:45:10;;;;;;;;;45.20;38.00;;;;;15.66;61.38;101104.97;2074006;28;45142;-62
2023/05/15 02:46:13;;;;;;;;;46.60;38.60;;;;;15.64;61.46;101103.28;2073886;28;46181;-62
2023/05/15 02:47:13;;;;;;;;;50.00;39.40;;;;;15.61;61.60;101106.91;2069970;28;46579;-63
2023/05/15 02:48:14;;;;;;;;;46.25;38.50;;;;;15.58;61.07;101097.16;2071776;28;45323;-63
2023/05/15 02:49:15;;;;;;;;;47.20;36.80;;;;;15.55;61.21;101105.31;2073400;28;46461;-61
2023/05/15 02:50:16;;;;;;;;;51.25;38.50;;;;;15.55;61.65;101104.44;2073519;28;45757;-62
2023/05/15 02:51:17;;;;;;;;;46.50;39.25;;;;;15.53;61.59;101093.81;2074680;28;45917;-62
2023/05/15 02:52:18;;;;;;;;;46.60;39.80;;;;;15.51;61.51;101101.00;2074042;28;46755;-62
2023/05/15 02:53:18;;;;;;;;;50.00;39.00;;;;;15.52;61.51;101102.75;2074307;28;46451;-62
2023/05/15 02:54:19;;;;;;;;;43.50;37.75;;;;;15.54;61.66;101100.03;2073908;28;47013;-63
2023/05/15 02:55:20;;;;;;;;;49.60;40.00;;;;;15.53;61.69;101095.59;2073983;28;46813;-63
2023/05/15 02:56:21;;;;;;;;;45.00;37.25;;;;;15.52;61.87;101096.53;2073891;28;45757;-61
2023/05/15 02:57:21;;;;;;;;;47.00;37.50;;;;;15.50;61.69;101099.28;2073849;28;46598;-62
2023/05/15 02:58:21;;;;;;;;;44.50;37.75;;;;;15.49;61.16;101096.63;2074156;28;45881;-62
2023/05/15 02:59:22;;;;;;;;;38.75;34.00;;;;;15.49;61.15;101094.81;2074679;28;45572;-62
2023/05/15 03:00:22;;;;;;;;;44.00;37.25;;;;;15.50;61.55;101101.03;2074024;28;46602;-62
2023/05/15 03:01:23;;;;;;;;;45.25;37.50;;;;;15.50;61.26;101096.59;2074248;28;45516;-62
2023/05/15 03:02:23;;;;;;;;;49.75;39.25;;;;;15.51;61.21;101089.44;2073995;28;46212;-61
2023/05/15 03:03:23;;;;;;;;;43.25;36.00;;;;;15.52;61.63;101089.38;2073724;28;45960;-60
2023/05/15 03:04:24;;;;;;;;;46.00;38.25;;;;;15.51;61.25;101093.00;2073478;28;45273;-62
2023/05/15 03:05:24;;;;;;;;;43.25;37.25;;;;;15.51;61.15;101090.31;2082015;28;45803;-62
2023/05/15 03:06:25;;;;;;;;;47.00;40.00;;;;;15.49;61.10;101091.28;2066277;28;46124;-63
2023/05/15 03:07:25;;;;;;;;;48.00;37.00;;;;;15.50;61.12;101095.69;2072127;28;46003;-62
2023/05/15 03:08:26;;;;;;;;;46.25;38.25;;;;;15.49;61.51;101091.28;2075401;28;45627;-63
2023/05/15 03:09:27;;;;;;;;;43.75;37.50;;;;;15.47;61.57;101091.31;2079883;28;46108;-62
2023/05/15 03:10:27;;;;;;;;;45.00;38.50;;;;;15.48;60.90;101094.88;2070362;28;45819;-61
2023/05/15 03:11:27;;;;;;;;;45.25;36.50;;;;;15.47;61.60;101094.00;2073746;28;45059;-63
2023/05/15 03:12:27;;;;;;;;;41.25;35.00;;;;;15.46;61.50;101092.25;2074255;28;45624;-63
2023/05/15 03:13:28;;;;;;;;;46.75;37.00;;;;;15.47;61.61;101096.69;2073793;28;46663;-63
2023/05/15 03:14:28;;;;;;;;;46.50;38.25;;;;;15.49;61.14;101093.94;2074213;28;46298;-62
2023/05/15 03:15:28;;;;;;;;;42.50;36.25;;;;;15.48;61.31;101095.75;2074129;28;46493;-65
2023/05/15 03:16:29;;;;;;;;;34.75;31.25;;;;;15.47;61.12;101096.69;2073871;28;46214;-62
2023/05/15 03:17:29;;;;;;;;;38.50;33.00;;;;;15.45;61.05;101092.31;2074492;28;46494;-61
2023/05/15 03:18:29;;;;;;;;;41.00;33.50;;;;;15.43;61.26;101094.19;2074070;28;45215;-62
2023/05/15 03:19:30;;;;;;;;;43.00;35.75;;;;;15.42;61.23;101095.09;2073589;28;45039;-63
2023/05/15 03:20:31;;;;;;;;;43.25;35.75;;;;;15.41;61.10;101096.91;2074572;28;46070;-61
2023/05/15 03:21:31;;;;;;;;;49.50;40.50;;;;;15.40;61.49;101099.66;2074130;28;45559;-63
2023/05/15 03:22:31;;;;;;;;;43.00;36.50;;;;;15.39;61.17;101103.25;2073953;28;46329;-63
2023/05/15 03:23:32;;;;;;;;;38.25;33.50;;;;;15.37;61.03;101103.28;2073856;28;46409;-61
2023/05/15 03:24:32;;;;;;;;;46.50;38.00;;;;;15.36;61.29;101100.66;2073476;28;46076;-63
2023/05/15 03:25:32;;;;;;;;;40.75;34.25;;;;;15.36;60.95;101100.66;2074241;28;45704;-63
2023/05/15 03:26:33;;;;;;;;;43.50;36.25;;;;;15.36;61.14;101093.50;2074510;28;45724;-62
2023/05/15 03:27:33;;;;;;;;;41.75;34.75;;;;;15.36;61.32;101103.34;2074295;28;46680;-62
2023/05/15 03:28:33;;;;;;;;;40.50;34.50;;;;;15.36;60.82;101095.31;2074564;28;45721;-62
2023/05/15 03:29:34;;;;;;;;;37.25;31.00;;;;;15.35;61.11;101098.91;2074315;28;45680;-62
2023/05/15 03:30:34;;;;;;;;;47.00;38.25;;;;;15.33;60.86;101096.31;2074421;28;45488;-61
2023/05/15 03:31:34;;;;;;;;;45.50;36.75;;;;;15.31;60.90;101092.81;2073853;28;46304;-61
2023/05/15 03:32:35;;;;;;;;;42.25;36.00;;;;;15.31;61.00;101093.69;2071785;28;45608;-62
2023/05/15 03:33:37;;;;;;;;;44.50;37.50;;;;;15.29;61.02;101092.88;2072534;28;46152;-62
2023/05/15 03:34:37;;;;;;;;;40.40;34.20;;;;;15.29;60.89;101095.53;2069604;28;45795;-62
2023/05/15 03:35:37;;;;;;;;;45.25;37.25;;;;;15.28;61.02;101091.13;2064818;28;46265;-62
2023/05/15 03:36:38;;;;;;;;;44.00;36.00;;;;;15.27;61.16;101093.84;2070985;28;45898;-62
2023/05/15 03:37:38;;;;;;;;;41.00;34.50;;;;;15.25;60.83;101093.91;2072166;28;47224;-62
2023/05/15 03:38:39;;;;;;;;;45.50;37.00;;;;;15.24;60.74;101089.47;2072420;28;45648;-61
2023/05/15 03:39:39;;;;;;;;;42.00;37.00;;;;;15.26;60.86;101090.31;2071687;28;46887;-63
2023/05/15 03:40:40;;;;;;;;;46.25;39.50;;;;;15.24;60.85;101092.13;2073259;28;45203;-63
2023/05/15 03:41:40;;;;;;;;;41.75;33.25;;;;;15.24;60.97;101085.91;2073144;28;45511;-61
2023/05/15 03:42:40;;;;;;;;;44.25;32.25;;;;;15.23;61.00;101085.03;2072648;28;45857;-62
2023/05/15 03:43:41;;;;;;;;;43.75;36.75;;;;;15.23;60.85;101079.69;2072514;28;45862;-62
2023/05/15 03:44:41;;;;;;;;;48.50;39.00;;;;;15.22;61.22;101087.78;2072724;28;45707;-63
2023/05/15 03:45:41;;;;;;;;;42.75;35.00;;;;;15.22;61.05;101088.66;2072559;28;46469;-63
2023/05/15 03:46:41;;;;;;;;;44.00;37.25;;;;;15.22;61.55;101091.31;2072302;28;46673;-62
2023/05/15 03:47:42;;;;;;;;;43.50;37.00;;;;;15.23;60.90;101087.72;2072630;28;46273;-62
2023/05/15 03:48:42;;;;;;;;;37.50;32.50;;;;;15.24;61.51;101086.78;2072791;28;46908;-62
2023/05/15 03:49:42;;;;;;;;;45.50;36.25;;;;;15.24;60.85;101086.78;2072276;28;46240;-63
2023/05/15 03:50:43;;;;;;;;;40.50;33.75;;;;;15.25;60.65;101085.91;2072848;28;45563;-64
2023/05/15 03:51:44;;;;;;;;;43.80;36.60;;;;;15.24;60.84;101088.59;2072815;28;45947;-63
2023/05/15 03:52:44;;;;;;;;;44.75;36.00;;;;;15.22;60.63;101085.09;2072251;28;46648;-62
2023/05/15 03:53:44;;;;;;;;;48.25;39.25;;;;;15.20;60.53;101086.97;2072894;28;45051;-61
2023/05/15 03:54:45;;;;;;;;;43.75;36.75;;;;;15.18;60.54;101094.16;2072890;28;45651;-62
2023/05/15 03:55:45;;;;;;;;;35.75;32.50;;;;;15.15;60.68;101091.59;2073384;28;46349;-60
2023/05/15 03:56:46;;;;;;;;;38.75;34.25;;;;;15.13;60.78;101090.78;2063587;28;45678;-62
2023/05/15 03:57:46;;;;;;;;;38.50;32.50;;;;;15.11;61.14;101092.63;2064538;28;44984;-62
2023/05/15 03:58:46;;;;;;;;;39.25;33.75;;;;;15.12;61.04;101089.91;2070196;28;45110;-62
2023/05/15 03:59:47;;;;;;;;;41.00;35.25;;;;;15.13;60.86;101090.78;2072802;28;45714;-62
2023/05/15 04:00:47;;;;;;;;;39.25;33.00;;;;;15.14;60.73;101098.75;2072300;28;46658;-64
2023/05/15 04:01:48;;;;;;;;;43.75;36.25;;;;;15.12;61.13;101095.25;2072325;28;45748;-61
2023/05/15 04:02:48;;;;;;;;;40.75;33.75;;;;;15.12;60.73;101091.69;2072346;28;46418;-63
2023/05/15 04:03:49;;;;;;;;;41.25;34.50;;;;;15.10;60.58;101097.09;2071890;28;46852;-62
2023/05/15 04:04:50;;;;;;;;;38.50;33.75;;;;;15.08;60.82;101090.94;2071874;28;46093;-60
2023/05/15 04:05:51;;;;;;;;;38.00;34.00;;;;;15.06;60.82;101094.59;2072141;28;46955;-61
2023/05/15 04:06:51;;;;;;;;;40.25;35.25;;;;;15.04;60.67;101094.66;2072837;28;46044;-62
2023/05/15 04:07:51;;;;;;;;;38.00;31.75;;;;;15.01;60.58;101092.09;2072667;28;45461;-62
2023/05/15 04:08:52;;;;;;;;;33.00;30.75;;;;;14.98;60.41;101090.34;2072949;28;46190;-60
2023/05/15 04:09:52;;;;;;;;;40.25;34.50;;;;;14.95;60.61;101093.16;2072477;28;46231;-61
2023/05/15 04:10:53;;;;;;;;;37.75;33.75;;;;;14.93;60.50;101102.16;2072365;28;46257;-62
2023/05/15 04:11:53;;;;;;;;;38.00;33.00;;;;;14.92;61.02;101103.94;2072246;28;46231;-62
2023/05/15 04:12:53;;;;;;;;;43.75;35.50;;;;;14.91;60.78;101102.19;2072533;28;46314;-61
2023/05/15 04:13:54;;;;;;;;;42.50;35.00;;;;;14.88;60.81;101098.75;2072209;28;45054;-64
2023/05/15 04:15:11;;;;;;;;;43.75;35.50;;;;;14.87;60.77;101099.69;2072384;28;46305;-65
2023/05/15 04:16:12;;;;;;;;;38.60;32.80;;;;;14.87;60.69;101097.91;2072631;28;46804;-61
2023/05/15 04:17:12;;;;;;;;;43.50;35.75;;;;;14.85;60.82;101096.19;2072174;28;45559;-63
2023/05/15 04:18:12;;;;;;;;;39.75;34.00;;;;;14.82;61.01;101090.94;2072255;28;47331;-63
2023/05/15 04:19:13;;;;;;;;;43.25;35.00;;;;;14.79;61.14;101091.91;2072316;28;46502;-62
2023/05/15 04:20:15;;;;;;;;;41.75;34.25;;;;;14.78;60.97;101097.31;2072461;28;46282;-61
2023/05/15 04:21:15;;;;;;;;;46.20;37.40;;;;;14.77;61.15;101096.44;2072755;28;45653;-63
2023/05/15 04:22:15;;;;;;;;;48.75;39.50;;;;;14.76;60.66;101101.84;2072796;28;45958;-62
2023/05/15 04:23:16;;;;;;;;;43.75;33.75;;;;;14.74;60.93;101099.22;2072717;28;45353;-60
2023/05/15 04:24:16;;;;;;;;;47.50;39.00;;;;;14.71;60.92;101097.50;2072458;28;46318;-63
2023/05/15 04:25:18;;;;;;;;;46.00;37.50;;;;;14.68;61.04;101100.28;2072509;28;45631;-62
2023/05/15 04:26:19;;;;;;;;;38.00;32.60;;;;;14.66;61.50;101094.13;2072129;28;45673;-63
2023/05/15 04:27:19;;;;;;;;;39.50;32.00;;;;;14.65;61.25;101096.84;2071900;28;46696;-63
2023/05/15 04:28:22;;;;;;;;;42.00;35.00;;;;;14.64;61.44;101098.66;2072165;28;46702;-61
2023/05/15 04:29:22;;;;;;;;;37.60;32.60;;;;;14.62;61.53;101100.50;2072317;28;47000;-63
2023/05/15 04:30:23;;;;;;;;;42.25;35.50;;;;;14.64;61.94;101100.44;2072038;28;46624;-63
2023/05/15 04:31:23;;;;;;;;;38.50;34.00;;;;;14.66;61.77;101103.94;2072513;28;45989;-62
2023/05/15 04:32:23;;;;;;;;;43.75;34.25;;;;;14.68;61.71;101096.75;2072106;28;45447;-63
2023/05/15 04:33:24;;;;;;;;;36.50;32.50;;;;;14.70;61.62;101098.44;2080190;28;45535;-60
2023/05/15 04:34:25;;;;;;;;;40.00;33.50;;;;;14.75;61.45;101100.09;2079848;28;46531;-61
2023/05/15 04:35:25;;;;;;;;;44.75;35.75;;;;;14.78;61.82;101098.19;2072232;28;46337;-62
2023/05/15 04:36:25;;;;;;;;;42.00;36.25;;;;;14.82;61.88;101098.97;2072076;28;46366;-62
2023/05/15 04:37:27;;;;;;;;;42.25;34.25;;;;;14.84;61.16;101095.31;2072095;28;45405;-64
2023/05/15 04:38:27;;;;;;;;;44.00;38.00;;;;;14.86;61.52;101092.56;2071792;28;45811;-62
2023/05/15 04:39:27;;;;;;;;;36.50;33.00;;;;;14.89;60.92;101092.50;2072241;28;45507;-63
2023/05/15 04:40:28;;;;;;;;;36.50;33.25;;;;;14.91;61.11;101095.97;2071852;28;45860;-63
2023/05/15 04:41:29;;;;;;;;;45.50;36.25;;;;;14.93;61.23;101092.31;2072639;28;45720;-64
2023/05/15 04:42:29;;;;;;;;;37.40;32.00;;;;;14.95;61.19;101095.81;2072181;28;45757;-62
2023/05/15 04:43:30;;;;;;;;;38.00;32.25;;;;;14.98;61.16;101090.34;2071597;28;46321;-64
2023/05/15 04:44:31;;;;;;;;;43.50;35.75;;;;;15.01;61.01;101084.94;2071857;28;45759;-63
2023/05/15 04:45:32;;;;;;;;;42.40;32.60;;;;;15.04;60.95;101088.44;2068084;28;45626;-60
2023/05/15 04:46:33;;;;;;;;;46.75;36.50;;;;;15.04;61.12;101089.31;2072122;28;45649;-63